This is the latest recevied weather packets stored in our database for station/object SP5XSL-4. If no packets are shown the sender has not sent any weather packets the latest 1 day(s).
| Time | Temp. | Humidity | Pressure | Rain* | Wind** | Luminosity | Snow |
|---|---|---|---|---|---|---|---|
| 1836274376 | 13.89° C | - | 1028.9 hPa | - | 1.79 m/s, 142° | - | - |
| 1836274236 | 13.89° C | - | 1028.8 hPa | - | 1.79 m/s, 141° | - | - |
| 1778013902 | 11.11° C | - | 1014.4 hPa | - | 4.92 m/s, 292° | - | - |
| 1778013352 | 11.67° C | - | 1014.4 hPa | - | 8.94 m/s, 352° | - | - |
| 1778012742 | 11.67° C | - | 1014.1 hPa | - | 5.81 m/s, 57° | - | - |
| 1778012162 | 11.67° C | - | 1014.4 hPa | - | 7.15 m/s, 1° | - | - |
| 1778011602 | 11.67° C | - | 1014.2 hPa | - | 4.92 m/s, 289° | - | - |
| 1778010985 | 12.22° C | - | 1013.9 hPa | - | 7.15 m/s, 61° | - | - |
| 1778010435 | 12.22° C | - | 1014.2 hPa | - | 4.92 m/s, 2° | - | - |
| 1778009850 | 12.78° C | - | 1014.2 hPa | - | 5.81 m/s, 332° | - | - |
| 1778009282 | 12.78° C | - | 1014.3 hPa | - | 4.92 m/s, 305° | - | - |
| 1778008715 | 13.33° C | - | 1014.3 hPa | - | 4.02 m/s, 259° | - | - |
| 1778008121 | 13.33° C | - | 1014.2 hPa | - | 7.15 m/s, 1° | - | - |
| 1778007542 | 13.89° C | - | 1014.4 hPa | - | 7.15 m/s, 3° | - | - |
| 1778006955 | 14.44° C | - | 1014.2 hPa | - | 4.92 m/s, 321° | - | - |
| 1778006415 | 15.56° C | - | 1014.1 hPa | - | 8.94 m/s, 336° | - | - |
| 1778005831 | 15.56° C | - | 1014 hPa | - | 7.15 m/s, 270° | - | - |
| 1778005315 | 16.11° C | - | 1013.8 hPa | - | 5.81 m/s, 288° | - | - |
| 1778004746 | 16.11° C | - | 1013.6 hPa | - | 8.05 m/s, 7° | - | - |
| 1778004262 | 16.67° C | - | 1013.4 hPa | - | 4.02 m/s, 117° | - | - |
| 1778003694 | 16.67° C | - | 1013.5 hPa | - | 8.05 m/s, 307° | - | - |
| 1778003182 | 16.67° C | - | 1013.4 hPa | - | 3.13 m/s, 303° | - | - |
| 1778002692 | 17.22° C | - | 1013.3 hPa | - | 4.92 m/s, 317° | - | - |
| 1778002180 | 17.22° C | - | 1013.2 hPa | - | 9.83 m/s, 56° | - | - |
| 1778001625 | 17.78° C | - | 1013.1 hPa | - | 4.92 m/s, 66° | - | - |
* Rain since midnight (hover to see other rain measurements)
** Current wind speed in m/s (hover to see current wind gust speed)